Time;durP1;ratioP1;P1;durP2;ratioP2;P2;SDS_P1;SDS_P2;PMS_P1;PMS_P2;Temp;Humidity;BMP_temperature;BMP_pressure;BME280_temperature;BME280_humidity;BME280_pressure;Samples;Min_cycle;Max_cycle;Signal;HPM_P1;HPM_P2
2022/12/07 00:01:31;;;;;;;27.80;22.83;;;6.20;99.90;;;;;;5079244;28;20466;-29
2022/12/07 00:04:05;;;;;;;27.97;22.37;;;6.30;99.90;;;;;;5077917;28;20450;-29
2022/12/07 00:06:32;;;;;;;28.53;22.43;;;6.10;99.90;;;;;;5088304;28;20430;-30
2022/12/07 00:08:58;;;;;;;28.73;23.40;;;6.10;99.90;;;;;;5087731;28;20422;-29
2022/12/07 00:11:25;;;;;;;28.37;21.53;;;6.10;99.90;;;;;;5087806;28;20460;-29
2022/12/07 00:13:59;;;;;;;28.07;21.77;;;6.10;99.90;;;;;;5086302;28;20196;-29
2022/12/07 00:16:28;;;;;;;29.40;22.37;;;6.00;99.90;;;;;;5087907;28;20525;-29
2022/12/07 00:18:54;;;;;;;30.87;24.00;;;6.20;99.90;;;;;;5087550;28;20505;-30
2022/12/07 00:21:23;;;;;;;26.60;21.10;;;6.20;99.90;;;;;;5087926;28;20561;-29
2022/12/07 00:23:50;;;;;;;26.30;20.90;;;6.10;99.90;;;;;;5087525;28;20413;-29
2022/12/07 00:26:20;;;;;;;27.33;21.23;;;6.10;99.90;;;;;;5087617;28;20501;-29
2022/12/07 00:28:47;;;;;;;26.77;20.80;;;6.10;99.90;;;;;;5087537;28;20417;-29
2022/12/07 00:31:15;;;;;;;29.40;21.10;;;6.30;99.90;;;;;;5087527;28;20414;-29
2022/12/07 00:33:40;;;;;;;23.03;19.03;;;6.20;99.90;;;;;;5084904;28;20516;-29
2022/12/07 00:36:10;;;;;;;25.13;20.90;;;6.20;99.90;;;;;;5090184;28;21011;-29
2022/12/07 00:38:37;;;;;;;30.83;21.30;;;6.00;99.90;;;;;;5091231;28;20188;-29
2022/12/07 00:41:05;;;;;;;25.57;20.13;;;6.10;99.90;;;;;;5091201;28;20909;-29
2022/12/07 00:43:31;;;;;;;26.23;20.47;;;6.10;99.90;;;;;;5091133;28;20422;-29
2022/12/07 00:45:57;;;;;;;25.53;20.73;;;6.30;99.90;;;;;;5089706;28;20433;-29
2022/12/07 00:48:23;;;;;;;27.63;21.63;;;6.10;99.90;;;;;;5091131;28;21008;-29
2022/12/07 00:50:49;;;;;;;25.73;20.83;;;6.10;99.90;;;;;;5091265;28;20200;-29
2022/12/07 00:53:15;;;;;;;24.63;21.13;;;6.00;99.90;;;;;;5082219;28;20513;-29
2022/12/07 00:55:41;;;;;;;27.70;21.60;;;6.30;99.90;;;;;;5072163;28;20415;-29
2022/12/07 00:58:07;;;;;;;25.97;21.77;;;6.10;99.90;;;;;;5091420;28;20455;-29
2022/12/07 01:00:34;;;;;;;29.03;22.50;;;6.10;99.90;;;;;;5090458;28;20303;-29
2022/12/07 01:03:00;;;;;;;29.97;22.80;;;6.30;99.90;;;;;;5083990;28;20181;-29
2022/12/07 01:05:26;;;;;;;26.87;21.90;;;6.20;99.90;;;;;;5087000;28;20419;-29
2022/12/07 01:07:51;;;;;;;28.23;21.27;;;6.10;99.90;;;;;;5089697;28;20184;-29
2022/12/07 01:10:17;;;;;;;29.97;22.20;;;6.20;99.90;;;;;;5090815;28;20180;-29
2022/12/07 01:12:43;;;;;;;33.30;24.77;;;6.30;99.90;;;;;;5090150;28;20198;-29
2022/12/07 01:15:09;;;;;;;34.43;24.10;;;6.40;99.90;;;;;;5089488;28;20329;-29
2022/12/07 01:17:34;;;;;;;34.47;25.00;;;6.40;99.90;;;;;;5089287;28;20237;-29
2022/12/07 01:20:01;;;;;;;33.20;24.27;;;6.30;99.90;;;;;;5090640;28;20920;-30
2022/12/07 01:22:27;;;;;;;34.80;25.03;;;6.30;99.90;;;;;;5090775;28;20215;-29
2022/12/07 01:24:53;;;;;;;32.47;24.70;;;6.20;99.90;;;;;;5090927;28;20442;-29
2022/12/07 01:27:18;;;;;;;31.03;24.10;;;6.20;99.90;;;;;;5090541;28;20180;-29
2022/12/07 01:29:44;;;;;;;38.13;25.93;;;6.20;99.90;;;;;;5090423;28;20259;-29
2022/12/07 01:32:10;;;;;;;37.37;26.37;;;6.20;99.90;;;;;;5090654;28;20686;-29
2022/12/07 01:34:36;;;;;;;36.57;27.17;;;6.20;99.90;;;;;;5089647;28;20226;-29
2022/12/07 01:37:02;;;;;;;36.10;26.20;;;6.30;99.90;;;;;;5090535;28;20410;-29
2022/12/07 01:39:28;;;;;;;33.17;25.43;;;6.30;99.90;;;;;;5089981;28;20495;-30
2022/12/07 01:41:53;;;;;;;36.53;26.83;;;6.20;99.90;;;;;;5090788;28;20218;-29
2022/12/07 01:44:23;;;;;;;35.43;25.80;;;6.10;99.90;;;;;;5089968;28;20423;-29
2022/12/07 01:46:58;;;;;;;35.67;27.87;;;6.30;99.90;;;;;;5087805;28;20188;-29
2022/12/07 01:49:47;;;;;;;32.20;25.23;;;6.20;99.90;;;;;;5090544;28;20418;-29
2022/12/07 01:52:30;;;;;;;30.97;24.93;;;6.20;99.90;;;;;;5090079;28;20429;-29
2022/12/07 01:55:06;;;;;;;37.03;25.80;;;6.20;99.90;;;;;;5090193;28;20770;-29
2022/12/07 01:57:35;;;;;;;36.30;27.07;;;6.20;99.90;;;;;;5090384;28;20524;-29
2022/12/07 02:00:03;;;;;;;35.40;26.13;;;6.20;99.90;;;;;;5089630;28;20417;-29
2022/12/07 02:02:42;;;;;;;41.07;27.97;;;6.20;99.90;;;;;;5089878;28;20415;-29
2022/12/07 02:05:08;;;;;;;39.33;26.13;;;6.30;99.90;;;;;;5089781;28;20444;-29
2022/12/07 02:07:37;;;;;;;33.50;25.77;;;6.10;99.90;;;;;;5090077;28;20414;-29
2022/12/07 02:10:32;;;;;;;34.53;25.60;;;6.10;99.90;;;;;;5089518;28;20177;-30
2022/12/07 02:12:58;;;;;;;31.73;24.83;;;6.30;99.90;;;;;;5071498;28;20451;-29
2022/12/07 02:15:47;;;;;;;33.20;24.47;;;6.30;99.90;;;;;;5069049;28;20439;-30
2022/12/07 02:18:43;;;;;;;39.53;26.33;;;6.20;99.90;;;;;;5057612;28;20288;-30
2022/12/07 02:21:18;;;;;;;31.93;23.53;;;6.20;99.90;;;;;;5069320;28;20439;-30
2022/12/07 02:24:20;;;;;;;34.50;25.17;;;6.40;99.90;;;;;;5069156;28;20438;-29
2022/12/07 02:27:32;;;;;;;32.80;24.40;;;6.20;99.90;;;;;;5069283;28;20402;-29
2022/12/07 02:30:03;;;;;;;32.63;24.40;;;6.20;99.90;;;;;;5068954;28;20513;-29
2022/12/07 02:33:14;;;;;;;32.27;24.50;;;6.30;99.90;;;;;;5068876;28;20408;-29
2022/12/07 02:35:44;;;;;;;31.03;23.53;;;6.50;99.90;;;;;;5067010;28;20438;-30
2022/12/07 02:38:31;;;;;;;31.90;22.40;;;6.30;99.90;;;;;;5068718;28;20399;-29
2022/12/07 02:41:18;;;;;;;32.17;23.57;;;6.30;99.90;;;;;;5069184;28;20462;-30
2022/12/07 02:43:48;;;;;;;27.57;20.77;;;6.30;99.90;;;;;;5067439;28;20407;-29
2022/12/07 02:46:23;;;;;;;31.60;22.63;;;6.30;99.90;;;;;;5068971;28;20416;-29
2022/12/07 02:48:50;;;;;;;31.50;23.67;;;6.30;99.90;;;;;;5066937;28;20403;-29
2022/12/07 02:51:18;;;;;;;36.10;23.30;;;6.30;99.90;;;;;;5069337;28;20449;-29
2022/12/07 02:53:43;;;;;;;34.10;23.97;;;6.30;99.90;;;;;;5068588;28;20890;-29
2022/12/07 02:56:28;;;;;;;31.33;23.20;;;6.20;99.90;;;;;;5069057;28;20446;-30
2022/12/07 02:59:08;;;;;;;32.67;21.83;;;6.30;99.90;;;;;;5068380;28;20449;-29
2022/12/07 03:02:11;;;;;;;29.27;21.67;;;6.30;99.90;;;;;;5068620;28;20462;-29
2022/12/07 03:04:40;;;;;;;33.80;25.00;;;6.30;99.90;;;;;;5068446;28;20494;-30
2022/12/07 03:07:30;;;;;;;30.57;24.43;;;6.00;99.90;;;;;;5068642;28;20747;-30
2022/12/07 03:10:01;;;;;;;33.10;22.97;;;6.30;99.90;;;;;;5068174;28;20395;-29
2022/12/07 03:12:58;;;;;;;30.00;22.40;;;6.30;99.90;;;;;;5077184;28;20557;-29
2022/12/07 03:15:37;;;;;;;33.07;22.23;;;6.20;99.90;;;;;;5088578;28;20762;-30
2022/12/07 03:18:05;;;;;;;31.60;22.47;;;6.30;99.90;;;;;;5088691;28;20410;-30
2022/12/07 03:20:34;;;;;;;35.53;23.80;;;6.30;99.90;;;;;;5088448;28;20450;-30
2022/12/07 03:22:59;;;;;;;27.83;21.50;;;6.10;99.90;;;;;;5088340;28;20413;-30
2022/12/07 03:25:27;;;;;;;28.20;21.73;;;6.20;99.90;;;;;;5088624;28;20489;-30
2022/12/07 03:27:57;;;;;;;28.80;21.43;;;6.30;99.90;;;;;;5088682;28;20403;-30
2022/12/07 03:30:36;;;;;;;26.23;20.33;;;6.10;99.90;;;;;;5087854;28;20858;-30
2022/12/07 03:33:18;;;;;;;30.83;22.23;;;6.20;99.90;;;;;;5088216;28;20542;-29
2022/12/07 03:35:55;;;;;;;27.27;21.60;;;6.10;99.90;;;;;;5087076;28;20413;-30
2022/12/07 03:38:40;;;;;;;30.93;21.63;;;6.40;99.90;;;;;;5088390;28;20505;-30
2022/12/07 03:41:22;;;;;;;32.03;21.60;;;6.30;99.90;;;;;;5088240;28;20544;-29
2022/12/07 03:43:48;;;;;;;30.23;22.27;;;6.10;99.90;;;;;;5088158;28;20402;-29
2022/12/07 03:46:14;;;;;;;28.13;20.90;;;6.10;99.90;;;;;;5088236;28;20428;-30
2022/12/07 03:48:58;;;;;;;27.40;20.23;;;6.20;99.90;;;;;;5088372;28;20420;-30
2022/12/07 03:51:31;;;;;;;28.20;20.27;;;6.20;99.90;;;;;;5088503;28;20643;-29
2022/12/07 03:54:27;;;;;;;26.30;20.07;;;6.20;99.90;;;;;;5088017;28;20921;-29
2022/12/07 03:56:54;;;;;;;32.00;20.10;;;6.10;99.90;;;;;;5086543;28;20479;-30
2022/12/07 03:59:21;;;;;;;25.90;19.43;;;6.30;99.90;;;;;;5087892;28;20657;-29
2022/12/07 04:01:55;;;;;;;26.10;19.37;;;6.20;99.90;;;;;;5087956;28;20470;-30
2022/12/07 04:04:22;;;;;;;28.83;21.40;;;6.00;99.90;;;;;;5087947;28;20417;-29
2022/12/07 04:06:48;;;;;;;27.00;19.70;;;6.10;99.90;;;;;;5088205;28;20748;-29
2022/12/07 04:09:14;;;;;;;26.70;18.57;;;6.10;99.90;;;;;;5087800;28;20471;-29
2022/12/07 04:11:40;;;;;;;25.40;18.70;;;6.20;99.90;;;;;;5087893;28;20483;-29
2022/12/07 04:14:18;;;;;;;24.87;18.50;;;6.30;99.90;;;;;;5070049;28;20929;-29
2022/12/07 04:16:44;;;;;;;24.60;19.50;;;6.20;99.90;;;;;;5071830;28;20679;-29
2022/12/07 04:19:11;;;;;;;23.50;19.43;;;6.20;99.90;;;;;;5071584;28;20423;-29
2022/12/07 04:21:36;;;;;;;26.73;19.90;;;6.00;99.90;;;;;;5071728;28;20461;-29
2022/12/07 04:24:02;;;;;;;24.67;17.47;;;6.10;99.90;;;;;;5069977;28;20407;-29
2022/12/07 04:26:28;;;;;;;23.37;18.50;;;6.10;99.90;;;;;;5072118;28;20546;-30
2022/12/07 04:28:53;;;;;;;24.07;18.07;;;6.20;99.90;;;;;;5071550;28;20868;-29
2022/12/07 04:31:19;;;;;;;25.77;18.97;;;6.00;99.90;;;;;;5071784;28;20192;-29
2022/12/07 04:33:45;;;;;;;24.97;19.00;;;6.30;99.90;;;;;;5070237;28;20196;-29
2022/12/07 04:36:11;;;;;;;28.10;19.67;;;6.10;99.90;;;;;;5071610;28;20181;-30
2022/12/07 04:38:36;;;;;;;23.37;18.33;;;6.20;99.90;;;;;;5071280;28;20196;-29
2022/12/07 04:41:06;;;;;;;29.50;20.10;;;6.10;99.90;;;;;;5071322;28;20212;-29
2022/12/07 04:43:31;;;;;;;28.40;20.00;;;6.00;99.90;;;;;;5070906;28;20237;-29
2022/12/07 04:45:57;;;;;;;25.73;18.77;;;6.10;99.90;;;;;;5071692;28;20868;-29
2022/12/07 04:48:23;;;;;;;29.13;19.67;;;6.10;99.90;;;;;;5071221;28;20185;-29
2022/12/07 04:50:51;;;;;;;27.10;19.97;;;6.10;99.90;;;;;;5071137;28;20197;-30
2022/12/07 04:53:17;;;;;;;26.60;18.83;;;6.00;99.90;;;;;;5071010;28;20264;-29
2022/12/07 04:55:44;;;;;;;26.00;19.60;;;6.10;99.90;;;;;;5070869;28;20546;-29
2022/12/07 04:58:10;;;;;;;26.87;17.00;;;6.10;99.90;;;;;;5070111;28;20185;-29
2022/12/07 05:00:35;;;;;;;22.37;17.80;;;5.90;99.90;;;;;;5070466;28;20481;-30
2022/12/07 05:03:01;;;;;;;26.77;18.20;;;5.90;99.90;;;;;;5077591;28;20691;-29
2022/12/07 05:05:26;;;;;;;26.30;17.63;;;6.00;99.90;;;;;;5091254;28;20362;-29
2022/12/07 05:07:52;;;;;;;23.80;18.87;;;5.80;99.90;;;;;;5091206;28;20185;-29
2022/12/07 05:10:18;;;;;;;25.23;18.60;;;6.00;99.90;;;;;;5090611;28;20192;-29
2022/12/07 05:12:43;;;;;;;22.93;17.90;;;6.00;99.90;;;;;;5079557;28;20546;-29
2022/12/07 05:15:09;;;;;;;22.70;16.90;;;5.90;99.90;;;;;;5069650;28;20177;-30
2022/12/07 05:17:35;;;;;;;26.50;17.17;;;5.90;99.90;;;;;;5070516;28;20289;-29
2022/12/07 05:20:00;;;;;;;26.43;16.70;;;5.90;99.90;;;;;;5070380;28;20419;-29
2022/12/07 05:22:27;;;;;;;20.90;16.73;;;6.10;99.90;;;;;;5070453;28;20181;-30
2022/12/07 05:24:54;;;;;;;27.47;17.90;;;5.90;99.90;;;;;;5070411;28;20268;-29
2022/12/07 05:27:20;;;;;;;23.87;16.07;;;5.80;99.90;;;;;;5070540;28;20410;-29
2022/12/07 05:29:45;;;;;;;23.83;17.47;;;5.90;99.90;;;;;;5068853;28;20910;-29
2022/12/07 05:32:11;;;;;;;22.27;16.63;;;5.80;99.90;;;;;;5070406;28;20185;-30
2022/12/07 05:34:37;;;;;;;25.27;17.27;;;5.80;99.90;;;;;;5069012;28;20185;-30
2022/12/07 05:37:03;;;;;;;21.97;15.70;;;6.10;99.90;;;;;;5070164;28;20280;-29
2022/12/07 05:39:28;;;;;;;21.17;15.83;;;6.10;99.90;;;;;;5070327;28;20644;-29
2022/12/07 05:42:12;;;;;;;28.20;17.10;;;5.90;99.90;;;;;;5070238;28;20224;-29
2022/12/07 05:44:39;;;;;;;20.77;16.23;;;5.70;99.90;;;;;;5070426;28;20194;-29
2022/12/07 05:47:05;;;;;;;25.83;16.77;;;5.70;99.90;;;;;;5069951;28;20416;-29
2022/12/07 05:49:30;;;;;;;23.73;17.97;;;6.00;99.90;;;;;;5069878;28;20424;-29
2022/12/07 05:51:56;;;;;;;22.70;16.27;;;5.70;99.90;;;;;;5069861;28;20181;-29
2022/12/07 05:54:22;;;;;;;23.43;15.87;;;6.00;99.90;;;;;;5077875;28;20204;-29
2022/12/07 05:56:47;;;;;;;25.33;16.90;;;5.80;99.90;;;;;;5090017;28;20197;-30
2022/12/07 05:59:22;;;;;;;22.10;16.30;;;5.90;99.90;;;;;;5081261;28;20647;-29
2022/12/07 06:01:52;;;;;;;23.50;16.70;;;5.80;99.90;;;;;;5075578;28;20706;-29
2022/12/07 06:04:19;;;;;;;25.03;17.70;;;5.80;99.90;;;;;;5087411;28;20414;-29
2022/12/07 06:06:44;;;;;;;26.87;20.37;;;6.00;99.90;;;;;;5089961;28;20595;-29
2022/12/07 06:09:10;;;;;;;24.37;18.00;;;5.80;99.90;;;;;;5088252;28;20430;-29
2022/12/07 06:14:21;;;;;;;29.10;19.63;;;5.70;99.90;;;;;;5081762;28;20435;-29
2022/12/07 06:16:47;;;;;;;29.00;17.87;;;5.80;99.90;;;;;;5067497;28;20500;-30
2022/12/07 06:19:13;;;;;;;27.87;18.43;;;6.00;99.90;;;;;;5085976;28;20184;-30
2022/12/07 06:21:39;;;;;;;25.10;18.57;;;5.80;99.90;;;;;;5089599;28;20827;-29
2022/12/07 06:24:05;;;;;;;24.90;17.50;;;5.70;99.90;;;;;;5089401;28;20183;-30
2022/12/07 06:26:31;;;;;;;23.53;17.73;;;5.70;99.90;;;;;;5088201;28;20882;-30
2022/12/07 06:28:56;;;;;;;21.00;16.73;;;5.80;99.90;;;;;;5089306;28;20594;-30
2022/12/07 06:31:22;;;;;;;30.90;18.00;;;5.80;99.90;;;;;;5088087;28;20266;-30
2022/12/07 06:33:48;;;;;;;22.63;16.33;;;5.90;99.90;;;;;;5086924;28;20840;-29
2022/12/07 06:36:13;;;;;;;22.10;17.20;;;5.80;99.90;;;;;;5089487;28;20185;-30
2022/12/07 06:38:39;;;;;;;23.13;16.27;;;5.80;99.90;;;;;;5087862;28;20758;-29
2022/12/07 06:41:06;;;;;;;20.43;15.00;;;5.90;99.90;;;;;;5089212;28;20261;-30
2022/12/07 06:43:32;;;;;;;19.13;16.43;;;5.90;99.90;;;;;;5082780;28;20223;-30
2022/12/07 06:45:58;;;;;;;21.70;16.47;;;5.80;99.90;;;;;;5069542;28;20472;-30
2022/12/07 06:48:24;;;;;;;20.77;15.77;;;5.80;99.90;;;;;;5076024;28;20426;-29
2022/12/07 06:50:49;;;;;;;22.40;16.57;;;5.70;99.90;;;;;;5104937;28;20192;-30
2022/12/07 06:53:15;;;;;;;23.40;16.13;;;5.80;99.90;;;;;;5088789;28;20616;-30
2022/12/07 06:55:41;;;;;;;22.07;15.30;;;5.80;99.90;;;;;;5089464;28;20203;-30
2022/12/07 06:58:07;;;;;;;21.40;16.27;;;5.80;99.90;;;;;;5082281;28;20771;-29
2022/12/07 07:00:34;;;;;;;20.60;14.73;;;6.00;99.90;;;;;;5068449;28;20459;-30
2022/12/07 07:03:00;;;;;;;18.77;13.93;;;5.70;99.90;;;;;;5074686;28;20896;-29
2022/12/07 07:05:26;;;;;;;21.93;14.70;;;6.00;99.90;;;;;;5104434;28;20449;-29
2022/12/07 07:07:52;;;;;;;17.43;14.30;;;5.70;99.90;;;;;;5070301;28;20422;-29
2022/12/07 07:10:17;;;;;;;18.70;14.33;;;5.80;99.90;;;;;;5083541;28;20199;-30
2022/12/07 07:12:43;;;;;;;17.90;14.10;;;5.70;99.90;;;;;;5068107;28;20453;-30
2022/12/07 07:15:09;;;;;;;17.50;14.23;;;5.70;99.90;;;;;;5080332;28;20184;-30
2022/12/07 07:17:35;;;;;;;17.53;14.60;;;5.60;99.90;;;;;;5071705;28;20203;-30
2022/12/07 07:20:00;;;;;;;20.53;13.80;;;5.70;99.90;;;;;;5067981;28;20457;-29
2022/12/07 07:22:26;;;;;;;19.77;13.60;;;5.60;99.90;;;;;;5084798;28;20221;-30
2022/12/07 07:24:52;;;;;;;17.50;12.90;;;5.60;99.90;;;;;;5084068;28;20214;-30
2022/12/07 07:27:17;;;;;;;14.70;12.47;;;5.70;99.90;;;;;;5086052;28;20184;-30
2022/12/07 07:29:43;;;;;;;18.10;12.70;;;5.70;99.90;;;;;;5088303;28;20173;-29
2022/12/07 07:32:09;;;;;;;14.90;12.60;;;5.70;99.90;;;;;;5087618;28;20563;-29
2022/12/07 07:34:34;;;;;;;18.70;12.00;;;5.60;99.90;;;;;;5085794;28;20530;-29
2022/12/07 07:37:00;;;;;;;14.97;12.37;;;5.60;99.90;;;;;;5087721;28;20552;-30
2022/12/07 07:39:26;;;;;;;16.00;13.40;;;5.50;99.90;;;;;;5086066;28;20276;-30
2022/12/07 07:41:52;;;;;;;14.53;11.60;;;5.80;99.90;;;;;;5078473;28;20891;-30
2022/12/07 07:44:17;;;;;;;15.03;10.47;;;5.50;99.90;;;;;;5076698;28;20177;-29
2022/12/07 07:46:43;;;;;;;17.43;11.93;;;5.50;99.90;;;;;;5079102;28;20183;-29
2022/12/07 07:49:10;;;;;;;17.30;11.30;;;5.60;99.90;;;;;;5078207;28;20185;-29
2022/12/07 07:51:36;;;;;;;14.03;11.20;;;5.70;99.90;;;;;;5068560;28;20261;-30
2022/12/07 07:54:03;;;;;;;14.70;11.50;;;5.60;99.90;;;;;;5067693;28;20451;-29
2022/12/07 07:56:28;;;;;;;15.40;11.03;;;5.80;99.90;;;;;;5071581;28;20922;-29
2022/12/07 07:58:55;;;;;;;16.03;10.70;;;5.60;99.90;;;;;;5087778;28;20418;-29
2022/12/07 08:01:20;;;;;;;17.60;11.17;;;5.70;99.90;;;;;;5088341;28;20215;-30
2022/12/07 08:03:47;;;;;;;14.70;10.90;;;5.70;99.90;;;;;;5083281;28;20621;-29
2022/12/07 08:06:12;;;;;;;14.07;10.50;;;5.60;99.90;;;;;;5079108;28;20173;-29
2022/12/07 08:08:38;;;;;;;17.20;11.10;;;5.60;99.90;;;;;;5069430;28;20472;-29
2022/12/07 08:11:08;;;;;;;18.10;11.50;;;5.60;99.90;;;;;;5075807;28;20192;-29
2022/12/07 08:13:34;;;;;;;15.07;10.90;;;5.70;99.90;;;;;;5066744;28;20606;-29
2022/12/07 08:16:08;;;;;;;15.33;11.00;;;5.60;99.90;;;;;;5084252;28;20735;-29
2022/12/07 08:18:40;;;;;;;16.53;11.93;;;5.60;99.90;;;;;;5079173;28;20471;-30
2022/12/07 08:21:09;;;;;;;18.03;11.57;;;5.70;99.90;;;;;;5067822;28;20462;-29
2022/12/07 08:23:34;;;;;;;15.57;10.50;;;5.80;99.90;;;;;;5067603;28;20466;-29
2022/12/07 08:26:02;;;;;;;17.43;10.80;;;5.60;99.90;;;;;;5067849;28;20451;-30
2022/12/07 08:28:29;;;;;;;20.10;10.43;;;5.50;99.90;;;;;;5067538;28;20188;-29
2022/12/07 08:31:16;;;;;;;15.03;10.80;;;5.60;99.90;;;;;;5067908;28;20499;-30
2022/12/07 08:33:42;;;;;;;15.47;10.63;;;5.70;99.90;;;;;;5067655;28;20775;-29
2022/12/07 08:36:11;;;;;;;17.13;10.97;;;5.70;99.90;;;;;;5067721;28;20427;-29
2022/12/07 08:38:38;;;;;;;19.17;10.60;;;5.70;99.90;;;;;;5067285;28;20419;-29
2022/12/07 08:41:04;;;;;;;17.10;11.20;;;5.80;99.90;;;;;;5081893;28;20458;-29
2022/12/07 08:43:30;;;;;;;16.53;11.30;;;6.00;99.90;;;;;;5087712;28;20418;-30
2022/12/07 08:46:20;;;;;;;15.77;11.27;;;5.70;99.90;;;;;;5068792;28;20795;-29
2022/12/07 08:49:10;;;;;;;16.80;11.40;;;5.90;99.90;;;;;;5067386;28;20411;-30
2022/12/07 08:51:36;;;;;;;17.53;11.13;;;5.70;99.90;;;;;;5067947;28;20418;-30
2022/12/07 08:54:06;;;;;;;13.30;11.10;;;5.70;99.90;;;;;;5067558;28;20493;-29
2022/12/07 08:56:31;;;;;;;14.03;11.97;;;5.70;99.90;;;;;;5069107;28;20415;-29
2022/12/07 08:58:58;;;;;;;14.60;11.50;;;5.60;99.90;;;;;;5070998;28;20543;-30
2022/12/07 09:01:23;;;;;;;13.60;11.47;;;5.80;99.90;;;;;;5071329;28;20201;-29
2022/12/07 09:03:49;;;;;;;14.70;12.57;;;5.70;99.90;;;;;;5084610;28;20419;-29
2022/12/07 09:06:15;;;;;;;14.83;10.93;;;5.80;99.90;;;;;;5091543;28;20206;-29
2022/12/07 09:08:45;;;;;;;15.60;11.57;;;5.70;99.90;;;;;;5090821;28;20183;-29
2022/12/07 09:11:11;;;;;;;14.17;11.70;;;5.70;99.90;;;;;;5091304;28;20692;-29
2022/12/07 09:13:37;;;;;;;14.10;10.67;;;5.80;99.90;;;;;;5087708;28;20524;-29
2022/12/07 09:16:03;;;;;;;16.97;11.07;;;5.90;99.90;;;;;;5070973;28;20208;-29
2022/12/07 09:18:28;;;;;;;12.10;10.10;;;5.70;99.90;;;;;;5070411;28;20191;-30
2022/12/07 09:20:55;;;;;;;12.93;10.47;;;5.80;99.90;;;;;;5071101;28;20213;-29
2022/12/07 09:23:21;;;;;;;14.63;11.40;;;6.00;99.90;;;;;;5070501;28;20488;-29
2022/12/07 09:25:46;;;;;;;15.90;11.63;;;5.90;99.90;;;;;;5071029;28;20411;-30
2022/12/07 09:28:12;;;;;;;15.20;10.97;;;6.00;99.90;;;;;;5086238;28;20594;-29
2022/12/07 09:30:38;;;;;;;14.80;10.67;;;5.80;99.90;;;;;;5069057;28;20185;-30
2022/12/07 09:33:03;;;;;;;15.77;11.37;;;5.90;99.90;;;;;;5070179;28;20572;-29
2022/12/07 09:35:29;;;;;;;19.90;11.67;;;5.80;99.90;;;;;;5070943;28;20416;-29
2022/12/07 09:37:55;;;;;;;21.33;13.40;;;6.10;99.90;;;;;;5070756;28;20184;-29
2022/12/07 09:40:22;;;;;;;20.10;13.50;;;6.00;99.90;;;;;;5070080;28;20189;-30
2022/12/07 09:42:52;;;;;;;17.80;13.73;;;5.90;99.90;;;;;;5069021;28;20439;-30
2022/12/07 09:45:24;;;;;;;20.00;14.47;;;5.90;99.90;;;;;;5070077;28;20431;-29
2022/12/07 09:47:50;;;;;;;17.73;13.90;;;6.00;99.90;;;;;;5070528;28;20424;-29
2022/12/07 09:50:25;;;;;;;21.33;14.20;;;6.00;99.90;;;;;;5069974;28;20422;-30
2022/12/07 09:52:52;;;;;;;19.03;14.43;;;6.00;99.90;;;;;;5069942;28;20426;-29
2022/12/07 09:55:28;;;;;;;17.20;14.60;;;6.10;99.90;;;;;;5070089;28;20416;-29
2022/12/07 09:57:55;;;;;;;21.00;13.90;;;6.10;99.90;;;;;;5070420;28;20430;-29
2022/12/07 10:00:23;;;;;;;19.67;15.03;;;6.20;99.90;;;;;;5084851;28;20535;-29
2022/12/07 10:02:58;;;;;;;16.87;13.23;;;6.20;99.90;;;;;;5075016;28;20468;-29
2022/12/07 10:05:35;;;;;;;20.37;13.83;;;6.10;99.90;;;;;;5090197;28;20436;-29
2022/12/07 10:08:02;;;;;;;22.97;15.13;;;6.30;99.90;;;;;;5089002;28;20440;-30
2022/12/07 10:10:33;;;;;;;19.67;13.87;;;6.40;99.90;;;;;;5088207;28;20508;-29
2022/12/07 10:13:14;;;;;;;13.70;11.40;;;6.70;99.90;;;;;;5092027;28;20722;-29
2022/12/07 10:15:57;;;;;;;13.20;10.83;;;6.70;99.90;;;;;;5068571;28;20804;-30
2022/12/07 10:18:37;;;;;;;15.40;11.10;;;6.70;99.90;;;;;;5069189;28;20422;-29
2022/12/07 10:21:13;;;;;;;14.33;11.40;;;6.80;99.90;;;;;;5069611;28;20468;-29
2022/12/07 10:23:41;;;;;;;17.00;11.57;;;6.60;99.90;;;;;;5068178;28;20470;-29
2022/12/07 10:26:21;;;;;;;14.80;11.43;;;6.80;99.90;;;;;;5068344;28;20445;-30
2022/12/07 10:28:48;;;;;;;18.30;11.77;;;6.70;99.90;;;;;;5069090;28;20767;-29
2022/12/07 10:31:21;;;;;;;17.23;11.87;;;6.50;99.90;;;;;;5069395;28;20502;-29
2022/12/07 10:33:57;;;;;;;17.20;10.50;;;6.50;99.90;;;;;;5067623;28;20426;-29
2022/12/07 10:36:36;;;;;;;13.30;9.50;;;6.60;99.90;;;;;;5069405;28;20432;-29
2022/12/07 10:39:15;;;;;;;15.23;10.43;;;6.40;99.90;;;;;;5068599;28;20422;-30
2022/12/07 10:41:57;;;;;;;11.97;9.00;;;6.50;99.90;;;;;;5069127;28;20553;-29
2022/12/07 10:44:29;;;;;;;12.73;10.30;;;6.50;99.90;;;;;;5068751;28;20427;-29
2022/12/07 10:47:12;;;;;;;20.00;10.90;;;6.50;99.90;;;;;;5069418;28;20412;-29
2022/12/07 10:49:57;;;;;;;15.00;10.00;;;6.60;99.90;;;;;;5068713;28;20416;-29
2022/12/07 10:52:34;;;;;;;19.93;10.47;;;6.40;99.90;;;;;;5069175;28;20419;-29
2022/12/07 10:55:23;;;;;;;12.00;9.53;;;6.50;99.90;;;;;;5068785;28;20901;-29
2022/12/07 10:57:58;;;;;;;15.27;10.33;;;6.50;99.90;;;;;;5069541;28;20510;-29
2022/12/07 11:00:28;;;;;;;15.73;9.70;;;6.50;99.90;;;;;;5068687;28;20482;-29
2022/12/07 11:03:02;;;;;;;17.30;9.43;;;6.40;99.90;;;;;;5074450;28;20418;-29
2022/12/07 11:05:35;;;;;;;13.30;8.87;;;6.70;99.90;;;;;;5089105;28;20414;-29
2022/12/07 11:08:33;;;;;;;15.37;9.20;;;6.60;99.90;;;;;;5089354;28;20953;-29
2022/12/07 11:11:21;;;;;;;13.43;8.67;;;6.50;99.90;;;;;;5084990;28;20820;-29
2022/12/07 11:14:19;;;;;;;13.23;8.53;;;6.70;99.90;;;;;;5068735;28;20428;-30
2022/12/07 11:16:59;;;;;;;17.47;9.63;;;6.70;99.90;;;;;;5068686;28;20951;-29
2022/12/07 11:19:50;;;;;;;16.30;8.50;;;6.60;99.90;;;;;;5068205;28;20426;-29
2022/12/07 11:22:31;;;;;;;12.33;8.70;;;6.50;99.90;;;;;;5068692;28;20485;-30
2022/12/07 11:25:11;;;;;;;13.37;8.90;;;6.70;99.90;;;;;;5068492;28;20729;-30
2022/12/07 11:27:58;;;;;;;11.67;8.33;;;6.80;99.90;;;;;;5068669;28;20837;-30
2022/12/07 11:30:34;;;;;;;12.10;7.90;;;6.60;99.90;;;;;;5068156;28;20411;-30
2022/12/07 11:33:34;;;;;;;12.93;8.77;;;6.60;99.90;;;;;;5068261;28;20410;-30
2022/12/07 11:36:41;;;;;;;9.57;7.37;;;6.80;99.90;;;;;;5063138;28;20514;-30
2022/12/07 11:39:19;;;;;;;9.73;7.80;;;6.60;99.90;;;;;;5068064;28;20513;-29
2022/12/07 11:41:47;;;;;;;13.37;8.17;;;6.80;99.90;;;;;;5068326;28;20553;-30
2022/12/07 11:44:15;;;;;;;15.10;8.80;;;6.80;99.90;;;;;;5067909;28;20806;-29
2022/12/07 11:46:53;;;;;;;11.70;8.80;;;6.90;99.90;;;;;;5068616;28;20408;-30
2022/12/07 11:49:19;;;;;;;12.00;9.13;;;6.80;99.90;;;;;;5067965;28;20768;-30
2022/12/07 11:51:48;;;;;;;16.37;8.90;;;6.80;99.90;;;;;;5068337;28;20427;-30
2022/12/07 11:54:20;;;;;;;13.83;8.60;;;7.00;99.90;;;;;;5067919;28;20189;-30
2022/12/07 11:56:49;;;;;;;15.50;9.00;;;7.00;99.90;;;;;;5068329;28;20427;-30
2022/12/07 11:59:38;;;;;;;9.43;8.30;;;7.10;99.90;;;;;;5067760;28;20524;-29
2022/12/07 12:02:16;;;;;;;10.23;8.20;;;7.30;99.90;;;;;;5067990;28;20481;-30
2022/12/07 12:04:47;;;;;;;10.30;8.63;;;6.90;99.90;;;;;;5088522;28;20467;-29
2022/12/07 12:07:25;;;;;;;12.80;9.47;;;7.20;99.90;;;;;;5088603;28;20420;-29
2022/12/07 12:10:02;;;;;;;14.40;8.20;;;7.00;99.90;;;;;;5088279;28;20414;-30
2022/12/07 12:12:34;;;;;;;11.57;8.30;;;6.90;99.90;;;;;;5078962;28;20529;-29
2022/12/07 12:15:08;;;;;;;12.27;8.57;;;6.90;99.90;;;;;;5068511;28;20481;-29
2022/12/07 12:18:04;;;;;;;14.80;9.13;;;6.80;99.90;;;;;;5067797;28;20449;-29
2022/12/07 12:20:50;;;;;;;11.87;8.90;;;7.00;99.90;;;;;;5066467;28;20771;-29
2022/12/07 12:23:20;;;;;;;10.73;9.50;;;6.90;99.90;;;;;;5067459;28;20418;-30
2022/12/07 12:25:50;;;;;;;10.87;9.00;;;6.90;99.90;;;;;;5068361;28;20459;-29
2022/12/07 12:28:56;;;;;;;12.50;9.00;;;7.00;99.90;;;;;;5067979;28;20420;-30
2022/12/07 12:31:22;;;;;;;12.90;8.63;;;6.80;99.90;;;;;;5067915;28;20943;-30
2022/12/07 12:33:47;;;;;;;12.37;8.97;;;6.80;99.90;;;;;;5070046;28;20419;-29
2022/12/07 12:36:42;;;;;;;11.67;9.00;;;6.70;99.90;;;;;;5071658;28;20608;-29
2022/12/07 12:39:10;;;;;;;16.53;11.00;;;6.80;99.90;;;;;;5068100;28;20200;-29
2022/12/07 12:44:19;;;;;;;12.73;8.87;;;6.90;99.90;;;;;;5071214;28;20662;-30
2022/12/07 12:46:53;;;;;;;11.30;8.93;;;6.80;99.90;;;;;;5071348;28;20416;-29
2022/12/07 12:49:19;;;;;;;10.93;8.40;;;6.90;99.90;;;;;;5071099;28;20414;-29
2022/12/07 12:51:48;;;;;;;13.17;8.50;;;6.90;99.90;;;;;;5071473;28;20479;-29
2022/12/07 12:54:20;;;;;;;12.77;9.13;;;6.70;99.90;;;;;;5071476;28;20177;-30
2022/12/07 12:57:00;;;;;;;10.10;8.10;;;6.80;99.90;;;;;;5071436;28;20476;-29
2022/12/07 12:59:33;;;;;;;9.40;6.60;;;6.70;99.90;;;;;;5071216;28;20424;-30
2022/12/07 13:02:22;;;;;;;12.20;6.27;;;6.70;99.90;;;;;;5071209;28;20466;-30
2022/12/07 13:04:52;;;;;;;11.40;7.03;;;6.90;99.90;;;;;;5071296;28;20411;-30